createdAt,value
2018-09-12T00:02:02.002Z,19.40
2018-09-12T00:04:30.552Z,19.40
2018-09-12T00:06:59.283Z,19.40
2018-09-12T00:09:27.870Z,19.40
2018-09-12T00:11:56.412Z,19.30
2018-09-12T00:14:24.975Z,19.30
2018-09-12T00:16:53.525Z,19.30
2018-09-12T00:19:22.780Z,19.20
2018-09-12T00:21:51.273Z,19.20
2018-09-12T00:24:19.995Z,19.10
2018-09-12T00:26:49.281Z,19.10
2018-09-12T00:29:17.978Z,19.10
2018-09-12T00:31:46.576Z,19.00
2018-09-12T00:34:15.182Z,19.00
2018-09-12T00:36:44.959Z,19.00
2018-09-12T00:39:13.630Z,19.00
2018-09-12T00:41:42.248Z,18.90
2018-09-12T00:44:10.871Z,18.90
2018-09-12T00:46:39.590Z,18.90
2018-09-12T00:49:08.143Z,18.90
2018-09-12T00:51:38.582Z,18.80
2018-09-12T00:54:07.477Z,18.80
2018-09-12T00:56:36.071Z,18.80
2018-09-12T00:59:04.646Z,18.80
2018-09-12T01:01:33.209Z,18.80
2018-09-12T01:04:01.876Z,18.80
2018-09-12T01:06:30.888Z,18.70
2018-09-12T01:08:59.458Z,18.70
2018-09-12T01:11:27.951Z,18.70
2018-09-12T01:13:56.809Z,18.60
2018-09-12T01:16:25.404Z,18.60
2018-09-12T01:18:54.285Z,18.60
2018-09-12T01:21:22.820Z,18.70
2018-09-12T01:23:51.345Z,18.70
2018-09-12T01:26:19.892Z,18.60
2018-09-12T01:28:48.607Z,18.60
2018-09-12T01:31:17.160Z,18.60
2018-09-12T01:33:45.735Z,18.60
2018-09-12T01:36:14.321Z,18.50
2018-09-12T01:38:42.901Z,18.50
2018-09-12T01:41:11.537Z,18.50
2018-09-12T01:43:40.275Z,18.40
2018-09-12T01:46:08.890Z,18.40
2018-09-12T01:48:39.078Z,18.40
2018-09-12T01:51:07.757Z,18.40
2018-09-12T01:53:36.263Z,18.40
2018-09-12T01:56:04.795Z,18.40
2018-09-12T01:58:33.570Z,18.40
2018-09-12T02:01:02.107Z,18.30
2018-09-12T02:03:30.834Z,18.30
2018-09-12T02:05:59.325Z,18.20
2018-09-12T02:08:27.820Z,18.20
2018-09-12T02:10:56.318Z,18.20
2018-09-12T02:13:25.453Z,18.10
2018-09-12T02:15:53.946Z,18.00
2018-09-12T02:18:22.467Z,17.90
2018-09-12T02:20:51.535Z,17.90
2018-09-12T02:23:20.152Z,17.90
2018-09-12T02:25:48.809Z,17.80
2018-09-12T02:28:17.684Z,17.80
2018-09-12T02:30:46.414Z,17.80
2018-09-12T02:33:15.340Z,17.70
2018-09-12T02:35:49.293Z,17.70
2018-09-12T02:38:18.429Z,17.70
2018-09-12T02:40:46.999Z,17.60
2018-09-12T02:43:15.637Z,17.60
2018-09-12T02:45:44.460Z,17.60
2018-09-12T02:48:13.064Z,17.60
2018-09-12T02:50:41.643Z,17.60
2018-09-12T02:53:10.149Z,17.50
2018-09-12T02:55:38.854Z,17.50
2018-09-12T02:58:07.376Z,17.50
2018-09-12T03:00:36.242Z,17.40
2018-09-12T03:03:04.722Z,17.40
2018-09-12T03:05:33.215Z,17.30
2018-09-12T03:08:02.530Z,17.30
2018-09-12T03:10:30.934Z,17.30
2018-09-12T03:13:00.902Z,17.30
2018-09-12T03:15:29.510Z,17.20
2018-09-12T03:17:58.052Z,17.20
2018-09-12T03:20:26.923Z,17.20
2018-09-12T03:22:55.352Z,17.20
2018-09-12T03:25:23.980Z,17.10
2018-09-12T03:27:52.626Z,17.10
2018-09-12T03:30:21.157Z,17.10
2018-09-12T03:32:49.696Z,17.10
2018-09-12T03:35:18.361Z,17.10
2018-09-12T03:37:46.909Z,17.10
2018-09-12T03:40:16.605Z,17.00
2018-09-12T03:42:45.091Z,17.00
2018-09-12T03:45:13.694Z,16.90
2018-09-12T03:47:42.223Z,16.90
2018-09-12T03:50:10.773Z,16.80
2018-09-12T03:52:39.444Z,16.80
2018-09-12T03:55:08.058Z,16.80
2018-09-12T03:57:36.540Z,16.80
2018-09-12T04:00:05.868Z,16.80
2018-09-12T04:02:34.981Z,16.70
2018-09-12T04:05:03.597Z,16.70
2018-09-12T04:07:32.189Z,16.70
2018-09-12T04:10:00.799Z,16.60
2018-09-12T04:12:29.584Z,16.60
2018-09-12T04:14:58.096Z,16.60
2018-09-12T04:17:35.471Z,16.60
2018-09-12T04:20:04.257Z,16.50
2018-09-12T04:22:33.305Z,16.50
2018-09-12T04:25:01.859Z,16.50
2018-09-12T04:27:30.789Z,16.50
2018-09-12T04:29:59.594Z,16.50
2018-09-12T04:32:28.091Z,16.50
2018-09-12T04:34:56.738Z,16.40
2018-09-12T04:37:25.348Z,16.40
2018-09-12T04:39:54.510Z,16.30
2018-09-12T04:42:23.034Z,16.30
2018-09-12T04:44:52.227Z,16.30
2018-09-12T04:47:21.147Z,16.30
2018-09-12T04:49:49.762Z,16.20
2018-09-12T04:52:18.414Z,16.20
2018-09-12T04:54:47.175Z,16.10
2018-09-12T04:57:15.657Z,16.10
2018-09-12T04:59:44.257Z,16.10
2018-09-12T05:02:12.861Z,16.10
2018-09-12T05:04:41.373Z,16.00
2018-09-12T05:07:09.916Z,15.90
2018-09-12T05:09:38.855Z,15.90
2018-09-12T05:12:07.388Z,15.80
2018-09-12T05:14:35.983Z,15.80
2018-09-12T05:17:04.571Z,15.80
2018-09-12T05:19:33.035Z,15.80
2018-09-12T05:22:01.607Z,15.70
2018-09-12T05:24:30.124Z,15.70
2018-09-12T05:26:58.618Z,15.70
2018-09-12T05:29:27.145Z,15.70
2018-09-12T05:31:55.689Z,15.60
2018-09-12T05:34:24.258Z,15.60
2018-09-12T05:36:53.207Z,15.60
2018-09-12T05:39:21.732Z,15.60
2018-09-12T05:41:50.398Z,15.50
2018-09-12T05:44:19.047Z,15.50
2018-09-12T05:46:48.881Z,15.50
2018-09-12T05:49:17.544Z,15.50
2018-09-12T05:51:46.157Z,15.50
2018-09-12T05:54:14.823Z,15.50
2018-09-12T05:56:43.495Z,15.50
2018-09-12T05:59:12.053Z,15.50
2018-09-12T06:01:40.785Z,15.50
2018-09-12T06:04:09.269Z,15.60
2018-09-12T06:06:39.033Z,15.50
2018-09-12T06:09:08.973Z,15.50
2018-09-12T06:11:37.721Z,15.60
2018-09-12T06:14:07.089Z,15.60
2018-09-12T06:16:35.646Z,15.70
2018-09-12T06:19:04.235Z,15.70
2018-09-12T06:21:32.772Z,15.80
2018-09-12T06:24:01.797Z,15.90
2018-09-12T06:26:30.351Z,15.90
2018-09-12T06:28:58.976Z,16.00
2018-09-12T06:31:27.559Z,16.10
2018-09-12T06:33:56.134Z,16.20
2018-09-12T06:36:24.679Z,16.20
2018-09-12T06:38:53.220Z,16.30
2018-09-12T06:41:22.457Z,16.40
2018-09-12T06:43:51.205Z,16.40
2018-09-12T06:46:20.305Z,16.50
2018-09-12T06:48:48.851Z,16.60
2018-09-12T06:51:17.635Z,16.70
2018-09-12T06:53:46.231Z,16.80
2018-09-12T06:56:15.886Z,16.90
2018-09-12T06:58:44.620Z,16.90
2018-09-12T07:01:13.357Z,17.00
2018-09-12T07:03:41.964Z,17.00
2018-09-12T07:06:11.103Z,17.10
2018-09-12T07:08:40.126Z,17.20
2018-09-12T07:11:08.684Z,17.30
2018-09-12T07:13:37.976Z,17.30
2018-09-12T07:16:06.525Z,17.40
2018-09-12T07:18:35.108Z,17.50
2018-09-12T07:21:03.935Z,17.60
2018-09-12T07:23:32.661Z,17.60
2018-09-12T07:26:01.361Z,17.70
2018-09-12T07:28:29.898Z,17.80
2018-09-12T07:30:58.384Z,17.90
2018-09-12T07:33:26.931Z,18.00
2018-09-12T07:35:55.556Z,18.10
2018-09-12T07:38:24.063Z,18.20
2018-09-12T07:40:52.835Z,18.30
2018-09-12T07:43:21.468Z,18.50
2018-09-12T07:45:49.978Z,18.50
2018-09-12T07:48:18.634Z,18.60
2018-09-12T07:50:49.397Z,18.70
2018-09-12T07:53:18.802Z,18.80
2018-09-12T07:55:47.644Z,18.90
2018-09-12T07:58:16.388Z,19.00
2018-09-12T08:00:44.942Z,19.10
2018-09-12T08:04:52.514Z,19.20
2018-09-12T08:07:21.558Z,19.30
2018-09-12T08:09:50.194Z,19.40
2018-09-12T08:12:18.851Z,19.50
2018-09-12T08:14:48.656Z,19.60
2018-09-12T08:17:18.881Z,19.70
2018-09-12T08:19:47.586Z,19.80
2018-09-12T08:22:16.119Z,19.90
2018-09-12T08:24:45.033Z,19.90
2018-09-12T08:27:14.102Z,20.10
2018-09-12T08:29:43.876Z,20.20
2018-09-12T08:32:13.664Z,20.30
2018-09-12T08:34:43.592Z,20.40
2018-09-12T08:37:12.299Z,20.50
2018-09-12T08:39:42.245Z,20.60
2018-09-12T08:42:11.304Z,20.70
2018-09-12T08:44:40.355Z,20.80
2018-09-12T08:47:10.325Z,20.90
2018-09-12T08:49:39.967Z,21.10
2018-09-12T08:52:08.501Z,21.20
2018-09-12T08:54:37.308Z,21.30
2018-09-12T08:57:05.897Z,21.40
2018-09-12T08:59:34.394Z,21.50
2018-09-12T09:02:03.304Z,21.60
2018-09-12T09:04:32.049Z,21.70
2018-09-12T09:07:00.596Z,21.80
2018-09-12T09:09:29.443Z,21.90
2018-09-12T09:11:58.340Z,22.00
2018-09-12T09:14:26.946Z,22.10
2018-09-12T09:16:55.696Z,22.20
2018-09-12T09:19:24.210Z,22.30
2018-09-12T09:21:52.896Z,22.50
2018-09-12T09:24:21.416Z,22.60
2018-09-12T09:26:50.016Z,22.60
2018-09-12T09:29:19.121Z,22.70
2018-09-12T09:31:47.603Z,22.80
2018-09-12T09:34:17.451Z,23.00
2018-09-12T09:36:46.589Z,23.10
2018-09-12T09:39:15.226Z,23.20
2018-09-12T09:41:44.279Z,23.40
2018-09-12T09:44:12.843Z,23.40
2018-09-12T09:46:41.476Z,23.50
2018-09-12T09:49:10.069Z,23.70
2018-09-12T09:51:39.737Z,23.80
2018-09-12T09:54:08.336Z,23.80
2018-09-12T09:56:36.835Z,24.00
2018-09-12T09:59:05.392Z,24.10
2018-09-12T10:02:38.353Z,24.30
2018-09-12T10:05:13.049Z,24.40
2018-09-12T10:07:46.766Z,24.50
2018-09-12T10:10:15.311Z,24.60
2018-09-12T10:12:46.085Z,24.80
2018-09-12T10:15:17.468Z,24.90
2018-09-12T10:17:46.727Z,24.90
2018-09-12T10:20:15.496Z,24.90
2018-09-12T10:22:44.119Z,25.00
2018-09-12T10:25:12.878Z,25.10
2018-09-12T10:27:41.703Z,25.00
2018-09-12T10:30:10.717Z,25.00
2018-09-12T10:32:39.363Z,25.10
2018-09-12T10:35:07.860Z,25.10
2018-09-12T10:37:37.037Z,25.20
2018-09-12T10:40:08.736Z,25.30
2018-09-12T10:42:37.294Z,25.40
2018-09-12T10:45:07.074Z,25.50
2018-09-12T10:47:35.940Z,25.50
2018-09-12T10:50:04.583Z,25.60
2018-09-12T10:52:33.106Z,25.60
2018-09-12T10:55:02.253Z,25.50
2018-09-12T10:57:30.801Z,25.50
2018-09-12T10:59:59.366Z,25.80
2018-09-12T11:02:27.909Z,25.80
2018-09-12T11:04:56.770Z,25.90
2018-09-12T11:07:25.325Z,25.80
2018-09-12T11:09:54.015Z,25.70
2018-09-12T11:12:22.497Z,25.80
2018-09-12T11:14:51.393Z,25.90
2018-09-12T11:17:19.975Z,25.90
2018-09-12T11:19:48.615Z,25.60
2018-09-12T11:22:17.280Z,25.60
2018-09-12T11:24:46.733Z,25.60
2018-09-12T11:27:16.079Z,25.80
2018-09-12T11:29:45.002Z,26.00
2018-09-12T11:32:14.120Z,26.10
2018-09-12T11:34:42.930Z,26.10
2018-09-12T11:37:12.974Z,26.10
2018-09-12T11:39:41.700Z,26.10
2018-09-12T11:42:10.597Z,26.30
2018-09-12T11:44:39.253Z,26.30
2018-09-12T11:47:07.868Z,26.40
2018-09-12T11:49:36.526Z,26.50
2018-09-12T11:52:05.150Z,26.50
2018-09-12T11:54:33.676Z,26.50
2018-09-12T11:57:02.209Z,26.50
2018-09-12T11:59:30.819Z,26.60
2018-09-12T12:01:59.362Z,26.60
2018-09-12T12:04:27.883Z,26.60
2018-09-12T12:06:56.911Z,26.50
2018-09-12T12:09:25.432Z,26.50
2018-09-12T12:11:53.926Z,26.70
2018-09-12T12:14:23.230Z,26.90
2018-09-12T12:16:51.775Z,26.90
2018-09-12T12:19:20.404Z,27.10
2018-09-12T12:21:49.006Z,27.20
2018-09-12T12:24:18.095Z,27.40
2018-09-12T12:26:47.029Z,27.40
2018-09-12T12:29:15.543Z,27.60
2018-09-12T12:31:44.495Z,27.60
2018-09-12T12:34:13.482Z,27.40
2018-09-12T12:36:42.611Z,27.00
2018-09-12T12:39:12.355Z,26.70
2018-09-12T12:41:40.985Z,26.60
2018-09-12T12:44:09.617Z,26.60
2018-09-12T12:46:38.244Z,26.40
2018-09-12T12:49:06.851Z,26.50
2018-09-12T12:51:35.908Z,26.70
2018-09-12T12:54:04.521Z,26.90
2018-09-12T12:56:33.148Z,27.00
2018-09-12T12:59:01.699Z,27.10
2018-09-12T13:01:30.259Z,27.10
2018-09-12T13:03:58.827Z,27.00
2018-09-12T13:06:27.749Z,27.10
2018-09-12T13:08:56.631Z,27.20
2018-09-12T13:11:25.565Z,27.50
2018-09-12T13:13:54.199Z,27.50
2018-09-12T13:16:22.859Z,27.40
2018-09-12T13:18:51.461Z,27.40
2018-09-12T13:21:20.080Z,27.40
2018-09-12T13:23:48.652Z,27.40
2018-09-12T13:26:17.272Z,27.50
2018-09-12T13:28:45.959Z,27.60
2018-09-12T13:31:14.834Z,27.60
2018-09-12T13:33:43.485Z,27.70
2018-09-12T13:36:13.120Z,27.80
2018-09-12T13:38:42.021Z,27.70
2018-09-12T13:41:10.666Z,27.50
2018-09-12T13:43:39.446Z,27.50
2018-09-12T13:46:08.286Z,27.50
2018-09-12T13:48:37.015Z,27.60
2018-09-12T13:51:05.608Z,27.50
2018-09-12T13:53:34.131Z,27.40
2018-09-12T13:56:02.758Z,27.20
2018-09-12T13:58:31.264Z,27.40
2018-09-12T14:00:59.981Z,27.40
2018-09-12T14:03:28.741Z,27.40
2018-09-12T14:05:57.305Z,27.30
2018-09-12T14:08:25.854Z,27.30
2018-09-12T14:10:54.385Z,27.30
2018-09-12T14:13:22.912Z,27.50
2018-09-12T14:15:51.742Z,27.50
2018-09-12T14:18:20.749Z,27.60
2018-09-12T14:20:49.677Z,27.70
2018-09-12T14:23:18.967Z,27.80
2018-09-12T14:25:47.497Z,27.80
2018-09-12T14:28:16.206Z,27.80
2018-09-12T14:30:44.822Z,27.90
2018-09-12T14:33:13.502Z,27.90
2018-09-12T14:35:42.136Z,28.00
2018-09-12T14:38:11.118Z,27.80
2018-09-12T14:40:40.484Z,27.90
2018-09-12T14:43:09.024Z,28.00
2018-09-12T14:45:37.629Z,28.10
2018-09-12T14:48:06.196Z,28.20
2018-09-12T14:50:34.758Z,28.30
2018-09-12T14:53:03.409Z,28.20
2018-09-12T14:55:31.984Z,28.20
2018-09-12T14:58:00.783Z,28.10
2018-09-12T15:00:29.451Z,28.00
2018-09-12T15:02:59.079Z,28.00
2018-09-12T15:05:27.826Z,27.90
2018-09-12T15:07:57.198Z,27.90
2018-09-12T15:10:26.449Z,28.00
2018-09-12T15:12:54.953Z,28.30
2018-09-12T15:15:23.574Z,28.50
2018-09-12T15:17:52.306Z,28.60
2018-09-12T15:20:20.790Z,28.30
2018-09-12T15:22:49.931Z,28.20
2018-09-12T15:25:18.534Z,28.20
2018-09-12T15:27:47.207Z,28.30
2018-09-12T15:30:18.442Z,28.50
2018-09-12T15:32:46.970Z,28.70
2018-09-12T15:35:15.843Z,28.70
2018-09-12T15:37:44.948Z,28.60
2018-09-12T15:40:14.141Z,28.50
2018-09-12T15:42:43.304Z,28.30
2018-09-12T15:45:11.886Z,28.20
2018-09-12T15:47:40.719Z,28.10
2018-09-12T15:50:09.259Z,27.80
2018-09-12T15:52:39.130Z,27.30
2018-09-12T15:55:07.667Z,27.00
2018-09-12T15:57:36.323Z,26.70
2018-09-12T16:00:05.148Z,26.70
2018-09-12T16:02:33.845Z,26.60
2018-09-12T16:05:02.459Z,26.50
2018-09-12T16:07:31.002Z,26.10
2018-09-12T16:09:59.539Z,25.70
2018-09-12T16:12:28.542Z,25.40
2018-09-12T16:14:57.125Z,24.90
2018-09-12T16:17:26.319Z,24.50
2018-09-12T16:19:55.032Z,24.30
2018-09-12T16:22:23.740Z,24.10
2018-09-12T16:24:52.239Z,24.00
2018-09-12T16:27:21.240Z,23.90
2018-09-12T16:29:49.854Z,24.00
2018-09-12T16:32:18.452Z,23.80
2018-09-12T16:34:48.355Z,23.70
2018-09-12T16:37:16.952Z,23.50
2018-09-12T16:39:46.225Z,23.50
2018-09-12T16:42:14.818Z,23.40
2018-09-12T16:44:43.389Z,23.30
2018-09-12T16:47:12.043Z,23.40
2018-09-12T16:49:41.200Z,23.50
2018-09-12T16:52:10.336Z,23.40
2018-09-12T16:54:40.324Z,23.20
2018-09-12T16:57:08.896Z,23.00
2018-09-12T16:59:38.065Z,22.70
2018-09-12T17:02:06.632Z,22.70
2018-09-12T17:04:35.221Z,22.60
2018-09-12T17:07:03.825Z,22.30
2018-09-12T17:09:32.575Z,22.10
2018-09-12T17:12:01.538Z,22.10
2018-09-12T17:14:30.067Z,22.00
2018-09-12T17:16:58.661Z,21.90
2018-09-12T17:19:27.241Z,21.90
2018-09-12T17:21:55.884Z,21.80
2018-09-12T17:24:24.493Z,21.50
2018-09-12T17:26:53.037Z,21.30
2018-09-12T17:29:21.605Z,21.10
2018-09-12T17:31:50.207Z,21.00
2018-09-12T17:34:25.516Z,20.90
2018-09-12T17:36:54.010Z,20.90
2018-09-12T17:39:22.479Z,20.90
2018-09-12T17:41:51.043Z,20.90
2018-09-12T17:44:19.722Z,20.80
2018-09-12T17:46:48.374Z,20.80
2018-09-12T17:49:16.890Z,20.70
2018-09-12T17:51:45.837Z,20.60
2018-09-12T17:54:14.586Z,20.50
2018-09-12T17:56:43.220Z,20.40
2018-09-12T17:59:11.796Z,20.40
2018-09-12T18:01:40.716Z,20.40
2018-09-12T18:04:09.245Z,20.30
2018-09-12T18:06:37.867Z,20.30
2018-09-12T18:09:08.514Z,20.30
2018-09-12T18:11:38.032Z,20.20
2018-09-12T18:14:06.558Z,20.00
2018-09-12T18:16:35.083Z,19.90
2018-09-12T18:19:03.598Z,19.90
2018-09-12T18:21:32.188Z,19.90
2018-09-12T18:24:00.743Z,19.90
2018-09-12T18:26:29.274Z,19.90
2018-09-12T18:28:57.879Z,19.80
2018-09-12T18:31:26.463Z,19.70
2018-09-12T18:33:55.367Z,19.60
2018-09-12T18:36:23.881Z,19.50
2018-09-12T18:38:52.365Z,19.40
2018-09-12T18:41:20.939Z,19.40
2018-09-12T18:43:49.778Z,19.30
2018-09-12T18:46:18.289Z,19.20
2018-09-12T18:48:46.963Z,19.00
2018-09-12T18:51:15.488Z,19.00
2018-09-12T18:53:44.158Z,18.90
2018-09-12T18:56:12.712Z,18.80
2018-09-12T18:58:41.278Z,18.90
2018-09-12T19:01:09.765Z,18.90
2018-09-12T19:03:38.766Z,18.80
2018-09-12T19:06:07.308Z,18.80
2018-09-12T19:08:35.886Z,18.70
2018-09-12T19:11:04.423Z,18.60
2018-09-12T19:13:32.955Z,18.60
2018-09-12T19:16:01.475Z,18.50
2018-09-12T19:18:30.093Z,18.40
2018-09-12T19:20:58.600Z,18.30
2018-09-12T19:23:27.540Z,18.20
2018-09-12T19:25:56.052Z,18.20
2018-09-12T19:28:24.605Z,18.20
2018-09-12T19:30:53.131Z,18.20
2018-09-12T19:33:21.668Z,18.20
2018-09-12T19:35:50.201Z,18.10
2018-09-12T19:38:18.763Z,18.10
2018-09-12T19:40:47.776Z,18.00
2018-09-12T19:43:16.567Z,18.00
2018-09-12T19:45:45.802Z,17.90
2018-09-12T19:48:14.330Z,17.90
2018-09-12T19:50:42.926Z,17.90
2018-09-12T19:53:11.438Z,17.80
2018-09-12T19:55:40.136Z,17.80
2018-09-12T19:58:08.697Z,17.80
2018-09-12T20:00:37.212Z,17.80
2018-09-12T20:03:05.958Z,17.80
2018-09-12T20:05:34.492Z,17.80
2018-09-12T20:08:03.001Z,17.70
2018-09-12T20:10:31.679Z,17.70
2018-09-12T20:13:00.238Z,17.70
2018-09-12T20:15:28.737Z,17.60
2018-09-12T20:17:57.237Z,17.60
2018-09-12T20:20:25.771Z,17.60
2018-09-12T20:22:54.349Z,17.60
2018-09-12T20:25:25.384Z,17.60
2018-09-12T20:27:56.332Z,17.50
2018-09-12T20:30:28.314Z,17.50
2018-09-12T20:32:59.458Z,17.40
2018-09-12T20:35:30.123Z,17.30
2018-09-12T20:38:03.100Z,17.20
2018-09-12T20:40:32.959Z,17.20
2018-09-12T20:43:03.036Z,17.00
2018-09-12T20:45:34.187Z,17.00
2018-09-12T20:48:04.140Z,17.00
2018-09-12T20:50:33.933Z,17.00
2018-09-12T20:53:03.814Z,17.00
2018-09-12T20:55:34.887Z,17.00
2018-09-12T20:58:05.540Z,17.00
2018-09-12T21:00:35.736Z,16.90
2018-09-12T21:03:05.431Z,16.90
2018-09-12T21:05:35.737Z,16.90
2018-09-12T21:08:05.603Z,16.90
2018-09-12T21:10:36.852Z,16.80
2018-09-12T21:13:07.552Z,16.80
2018-09-12T21:15:38.308Z,16.70
2018-09-12T21:18:10.549Z,16.60
2018-09-12T21:20:41.980Z,16.60
2018-09-12T21:23:11.738Z,16.60
2018-09-12T21:25:43.130Z,16.60
2018-09-12T21:28:13.019Z,16.60
2018-09-12T21:30:43.617Z,16.60
2018-09-12T21:33:13.246Z,16.60
2018-09-12T21:35:41.984Z,16.60
2018-09-12T21:38:20.311Z,16.60
2018-09-12T21:40:54.842Z,16.70
2018-09-12T21:43:24.813Z,16.70
2018-09-12T21:45:53.419Z,16.70
2018-09-12T21:48:21.945Z,16.70
2018-09-12T21:50:50.562Z,16.70
2018-09-12T21:53:19.073Z,16.70
2018-09-12T21:55:47.603Z,16.60
2018-09-12T21:58:16.582Z,16.60
2018-09-12T22:00:45.731Z,16.60
2018-09-12T22:03:14.431Z,16.60
2018-09-12T22:05:43.010Z,16.60
2018-09-12T22:08:12.008Z,16.60
2018-09-12T22:10:40.915Z,16.50
2018-09-12T22:13:12.281Z,16.50
2018-09-12T22:15:41.232Z,16.60
2018-09-12T22:18:09.809Z,16.60
2018-09-12T22:20:38.700Z,16.70
2018-09-12T22:23:07.288Z,16.70
2018-09-12T22:25:35.862Z,16.70
2018-09-12T22:28:04.793Z,16.60
2018-09-12T22:30:33.356Z,16.60
2018-09-12T22:33:01.843Z,16.60
2018-09-12T22:35:30.318Z,16.60
2018-09-12T22:38:00.029Z,16.60
2018-09-12T22:40:28.883Z,16.50
2018-09-12T22:42:57.501Z,16.50
2018-09-12T22:45:30.535Z,16.50
2018-09-12T22:47:59.047Z,16.40
2018-09-12T22:50:27.604Z,16.30
2018-09-12T22:52:56.343Z,16.20
2018-09-12T22:55:25.006Z,16.20
2018-09-12T22:57:53.768Z,16.20
2018-09-12T23:00:22.520Z,16.20
2018-09-12T23:02:51.102Z,16.20
2018-09-12T23:05:19.616Z,16.20
2018-09-12T23:07:48.271Z,16.20
2018-09-12T23:10:16.835Z,16.20
2018-09-12T23:12:45.459Z,16.20
2018-09-12T23:15:14.038Z,16.10
2018-09-12T23:17:42.859Z,16.10
2018-09-12T23:20:11.473Z,16.00
2018-09-12T23:22:40.261Z,16.10
2018-09-12T23:25:09.056Z,16.10
2018-09-12T23:27:37.694Z,16.10
2018-09-12T23:30:06.161Z,16.10
2018-09-12T23:32:34.701Z,16.20
2018-09-12T23:35:03.225Z,16.20
2018-09-12T23:37:31.715Z,16.20
2018-09-12T23:40:00.225Z,16.20
2018-09-12T23:42:28.766Z,16.20
2018-09-12T23:44:57.271Z,16.30
2018-09-12T23:47:25.804Z,16.20
2018-09-12T23:49:54.878Z,16.20
2018-09-12T23:52:23.364Z,16.20
2018-09-12T23:54:51.868Z,16.20
2018-09-12T23:57:20.415Z,16.20
2018-09-12T23:59:48.933Z,16.20
